Time;durP1;ratioP1;P1;durP2;ratioP2;P2;SDS_P1;SDS_P2;PMS_P1;PMS_P2;Temp;Humidity;BMP_temperature;BMP_pressure;BME280_temperature;BME280_humidity;BME280_pressure;Samples;Min_cycle;Max_cycle;Signal;HPM_P1;HPM_P2
2022/06/01 00:01:18;;;;;;;4.07;3.77;;;14.40;99.90;;;;;;5010903;28;20186;-59
2022/06/01 00:03:44;;;;;;;4.03;3.55;;;14.10;99.90;;;;;;5012778;28;20191;-59
2022/06/01 00:06:11;;;;;;;4.00;3.70;;;14.30;99.90;;;;;;5012360;28;20301;-59
2022/06/01 00:08:37;;;;;;;4.22;3.92;;;14.20;99.90;;;;;;5013504;28;20210;-59
2022/06/01 00:11:03;;;;;;;3.97;3.65;;;14.30;99.90;;;;;;5011532;28;20600;-59
2022/06/01 00:13:30;;;;;;;3.72;3.42;;;14.50;99.90;;;;;;5011653;28;20211;-59
2022/06/01 00:15:55;;;;;;;3.58;3.28;;;14.10;99.90;;;;;;5011441;28;20636;-59
2022/06/01 00:18:22;;;;;;;4.10;3.50;;;14.00;99.90;;;;;;5011528;28;20270;-60
2022/06/01 00:20:49;;;;;;;7.20;3.90;;;14.00;99.90;;;;;;5011368;28;20179;-59
2022/06/01 00:23:14;;;;;;;4.50;4.10;;;14.10;99.90;;;;;;5012643;28;20738;-59
2022/06/01 00:25:41;;;;;;;4.00;3.67;;;14.10;99.90;;;;;;5012336;28;20195;-59
2022/06/01 00:28:07;;;;;;;4.05;3.53;;;14.20;99.90;;;;;;5011420;28;20242;-59
2022/06/01 00:30:33;;;;;;;4.97;3.73;;;14.30;99.90;;;;;;5012337;28;20210;-59
2022/06/01 00:32:58;;;;;;;4.07;3.70;;;14.00;99.90;;;;;;5012070;28;20496;-59
2022/06/01 00:35:24;;;;;;;5.13;4.00;;;14.20;99.90;;;;;;5012418;28;20190;-60
2022/06/01 00:37:50;;;;;;;3.90;3.60;;;13.80;99.90;;;;;;5009148;28;20179;-58
2022/06/01 00:40:19;;;;;;;3.90;3.60;;;13.80;99.90;;;;;;5010730;28;20235;-59
2022/06/01 00:42:47;;;;;;;4.07;3.70;;;13.80;99.90;;;;;;5012406;28;20484;-59
2022/06/01 00:45:17;;;;;;;4.95;3.25;;;14.00;99.90;;;;;;5012274;28;20656;-61
2022/06/01 00:47:42;;;;;;;4.05;3.58;;;14.20;99.90;;;;;;5011400;28;20199;-60
2022/06/01 00:50:31;;;;;;;3.67;3.33;;;13.80;99.90;;;;;;5012240;28;20228;-59
2022/06/01 00:53:00;;;;;;;4.47;4.07;;;13.90;99.90;;;;;;5011408;28;20213;-59
2022/06/01 00:55:33;;;;;;;4.13;3.72;;;13.70;99.90;;;;;;5011053;28;20210;-59
2022/06/01 00:58:05;;;;;;;3.55;3.33;;;13.80;99.90;;;;;;5010649;28;20564;-61
2022/06/01 01:00:33;;;;;;;5.25;4.05;;;13.90;99.90;;;;;;5010114;28;20187;-62
2022/06/01 01:03:02;;;;;;;4.20;3.90;;;13.90;99.90;;;;;;5012328;28;20215;-59
2022/06/01 01:05:29;;;;;;;4.80;4.00;;;13.80;99.90;;;;;;5011039;28;20286;-59
2022/06/01 01:07:57;;;;;;;4.40;4.03;;;13.80;99.90;;;;;;5012050;28;20183;-59
2022/06/01 01:10:23;;;;;;;4.10;3.70;;;13.50;99.90;;;;;;5010640;28;20198;-59
2022/06/01 01:13:04;;;;;;;4.50;4.10;;;13.60;99.90;;;;;;5011809;28;20218;-59
2022/06/01 01:15:37;;;;;;;4.07;3.78;;;13.60;99.90;;;;;;5009043;28;20190;-58
2022/06/01 01:18:10;;;;;;;4.38;3.90;;;13.40;99.90;;;;;;5006933;28;20214;-58
2022/06/01 01:20:47;;;;;;;4.90;4.00;;;13.60;99.90;;;;;;5007881;28;20455;-59
2022/06/01 01:23:18;;;;;;;4.10;3.70;;;13.70;99.90;;;;;;5009315;28;20210;-58
2022/06/01 01:25:43;;;;;;;3.92;3.50;;;13.60;99.90;;;;;;5011190;28;20187;-59
2022/06/01 01:28:09;;;;;;;3.70;3.40;;;13.60;99.90;;;;;;5007023;28;20677;-59
2022/06/01 01:30:37;;;;;;;4.13;3.83;;;13.80;99.90;;;;;;5009784;28;20195;-59
2022/06/01 01:33:13;;;;;;;4.22;3.90;;;13.70;99.90;;;;;;5010851;28;20558;-59
2022/06/01 01:35:41;;;;;;;4.22;3.92;;;13.60;99.90;;;;;;5011493;28;20209;-59
2022/06/01 01:38:34;;;;;;;4.05;3.75;;;13.60;99.90;;;;;;5007601;28;20235;-58
2022/06/01 01:41:24;;;;;;;3.95;3.75;;;13.60;99.90;;;;;;5002567;28;20198;-58
2022/06/01 01:44:01;;;;;;;4.20;3.85;;;14.10;99.90;;;;;;5026490;28;20664;-59
2022/06/01 01:46:28;;;;;;;3.90;3.63;;;13.70;99.90;;;;;;5010727;28;20206;-59
2022/06/01 01:48:54;;;;;;;4.10;3.80;;;13.80;99.90;;;;;;5008830;28;20290;-59
2022/06/01 01:51:22;;;;;;;5.13;3.90;;;13.60;99.90;;;;;;5010638;28;20257;-58
2022/06/01 01:53:47;;;;;;;3.55;3.25;;;13.60;99.90;;;;;;5010943;28;20197;-60
2022/06/01 01:56:38;;;;;;;7.10;3.83;;;13.80;99.90;;;;;;5010173;28;20195;-59
2022/06/01 01:59:41;;;;;;;3.90;3.60;;;13.60;99.90;;;;;;5008188;28;20199;-58
2022/06/01 02:02:18;;;;;;;3.80;3.50;;;13.40;99.90;;;;;;5013028;28;20194;-58
2022/06/01 02:08:13;;;;;;;4.40;3.78;;;13.50;99.90;;;;;;5007722;28;20198;-58
2022/06/01 02:13:24;;;;;;;3.80;3.50;;;13.50;99.90;;;;;;5010749;28;20253;-57
2022/06/01 02:15:52;;;;;;;4.13;3.83;;;13.60;99.90;;;;;;5010045;28;20633;-59
2022/06/01 02:18:24;;;;;;;4.13;3.80;;;13.50;99.90;;;;;;5009279;28;20210;-59
2022/06/01 02:21:07;;;;;;;3.72;3.42;;;13.40;99.90;;;;;;5009607;28;20607;-59
2022/06/01 02:23:33;;;;;;;3.97;3.78;;;13.30;99.90;;;;;;5008493;28;20199;-58
2022/06/01 02:26:01;;;;;;;4.18;3.78;;;13.40;99.90;;;;;;5009912;28;20551;-58
2022/06/01 02:28:28;;;;;;;4.10;3.80;;;13.40;99.90;;;;;;5011773;28;20677;-58
2022/06/01 02:30:55;;;;;;;4.50;3.92;;;13.30;99.90;;;;;;5008850;28;20519;-59
2022/06/01 02:33:24;;;;;;;4.40;3.80;;;13.30;99.90;;;;;;5010700;28;20221;-58
2022/06/01 02:35:58;;;;;;;6.97;3.88;;;13.10;99.90;;;;;;5009210;28;20226;-57
2022/06/01 02:38:30;;;;;;;3.92;3.63;;;13.20;99.90;;;;;;5007834;28;20203;-58
2022/06/01 02:40:56;;;;;;;3.92;3.63;;;13.20;99.90;;;;;;5008608;28;20191;-58
2022/06/01 02:43:22;;;;;;;3.80;3.50;;;13.00;99.90;;;;;;5008973;28;20590;-58
2022/06/01 02:45:47;;;;;;;3.90;3.50;;;13.10;99.90;;;;;;5009007;28;20441;-58
2022/06/01 02:48:13;;;;;;;4.00;3.60;;;13.10;99.90;;;;;;5010012;28;20202;-57
2022/06/01 02:50:38;;;;;;;4.37;3.70;;;13.00;99.90;;;;;;5011938;28;20195;-59
2022/06/01 02:53:05;;;;;;;4.67;3.70;;;12.90;99.90;;;;;;5011539;28;20202;-59
2022/06/01 02:55:32;;;;;;;4.35;3.58;;;12.90;99.90;;;;;;5011838;28;20178;-58
2022/06/01 02:57:58;;;;;;;6.50;4.45;;;13.00;99.90;;;;;;5010035;28;20171;-57
2022/06/01 03:00:26;;;;;;;4.55;4.15;;;12.80;99.90;;;;;;5012130;28;20551;-57
2022/06/01 03:02:55;;;;;;;4.97;4.40;;;12.70;99.90;;;;;;5009162;28;20221;-58
2022/06/01 03:05:25;;;;;;;4.20;3.90;;;12.90;99.90;;;;;;5007086;28;20262;-59
2022/06/01 03:07:51;;;;;;;4.25;3.92;;;12.90;99.90;;;;;;5009661;28;20309;-59
2022/06/01 03:10:17;;;;;;;4.50;3.97;;;12.80;99.90;;;;;;5010245;28;20233;-59
2022/06/01 03:12:43;;;;;;;4.37;4.03;;;12.70;99.90;;;;;;5014637;28;20213;-58
2022/06/01 03:15:12;;;;;;;4.03;3.83;;;12.50;99.90;;;;;;5030165;28;23164;-59
2022/06/01 03:17:38;;;;;;;4.55;4.25;;;12.60;99.90;;;;;;5012962;28;20447;-59
2022/06/01 03:20:08;;;;;;;4.07;3.77;;;12.50;99.90;;;;;;5009487;28;20236;-58
2022/06/01 03:22:37;;;;;;;4.05;3.75;;;12.50;99.90;;;;;;5013813;28;20448;-58
2022/06/01 03:25:06;;;;;;;3.95;3.65;;;12.50;99.90;;;;;;5025240;28;20190;-59
2022/06/01 03:27:31;;;;;;;4.30;3.92;;;12.50;99.90;;;;;;5010059;28;20194;-57
2022/06/01 03:29:57;;;;;;;4.20;3.90;;;12.80;99.90;;;;;;5013854;28;20649;-59
2022/06/01 03:32:23;;;;;;;5.40;4.27;;;12.50;99.90;;;;;;5013603;28;20548;-58
2022/06/01 03:34:48;;;;;;;5.47;4.00;;;12.30;99.90;;;;;;5014138;28;20218;-58
2022/06/01 03:37:14;;;;;;;4.77;3.80;;;12.60;99.90;;;;;;5013454;28;20674;-59
2022/06/01 03:39:39;;;;;;;4.37;4.03;;;12.30;99.90;;;;;;5012324;28;20608;-59
2022/06/01 03:42:05;;;;;;;4.40;4.03;;;12.60;99.90;;;;;;5014008;28;20229;-59
2022/06/01 03:47:15;;;;;;;3.75;3.42;;;12.60;99.90;;;;;;5013185;28;20691;-58
2022/06/01 03:49:42;;;;;;;4.60;4.10;;;12.30;99.90;;;;;;5011669;28;20238;-58
2022/06/01 03:52:09;;;;;;;4.10;3.70;;;12.40;99.90;;;;;;5012917;28;20564;-59
2022/06/01 03:54:35;;;;;;;4.78;4.20;;;12.30;99.90;;;;;;5012702;28;20573;-59
2022/06/01 03:57:02;;;;;;;4.80;4.40;;;12.60;99.90;;;;;;5013066;28;20222;-59
2022/06/01 03:59:31;;;;;;;4.22;3.92;;;12.70;99.90;;;;;;5011438;28;20207;-58
2022/06/01 04:02:01;;;;;;;4.38;3.97;;;12.50;99.90;;;;;;5010007;28;20198;-59
2022/06/01 04:04:27;;;;;;;4.10;3.80;;;12.50;99.90;;;;;;5013403;28;20186;-58
2022/06/01 04:06:52;;;;;;;4.50;4.10;;;12.40;99.90;;;;;;5008846;28;20507;-60
2022/06/01 04:09:18;;;;;;;3.80;3.50;;;12.40;99.90;;;;;;5012574;28;20531;-59
2022/06/01 04:11:43;;;;;;;4.63;4.27;;;12.40;99.90;;;;;;5013256;28;20178;-59
2022/06/01 04:14:09;;;;;;;4.40;4.10;;;12.60;99.90;;;;;;5012492;28;20225;-58
2022/06/01 04:16:35;;;;;;;4.20;3.80;;;12.60;99.90;;;;;;5012609;28;20195;-58
2022/06/01 04:19:00;;;;;;;4.43;4.10;;;12.50;99.90;;;;;;5013184;28;20206;-58
2022/06/01 04:21:30;;;;;;;4.50;4.03;;;12.80;99.90;;;;;;5010071;28;20726;-58
2022/06/01 04:24:01;;;;;;;4.50;4.20;;;12.80;99.90;;;;;;5010830;28;20191;-59
2022/06/01 04:26:27;;;;;;;4.00;3.70;;;12.60;99.90;;;;;;5006993;28;20186;-59
2022/06/01 04:28:53;;;;;;;4.57;4.27;;;12.90;99.90;;;;;;5010327;28;20199;-58
2022/06/01 04:31:18;;;;;;;4.28;3.75;;;12.90;99.90;;;;;;5008228;28;20215;-58
2022/06/01 04:33:44;;;;;;;5.97;4.60;;;12.80;99.90;;;;;;5009506;28;20675;-59
2022/06/01 04:36:10;;;;;;;4.30;4.00;;;13.00;99.90;;;;;;5010841;28;20548;-58
2022/06/01 04:38:36;;;;;;;4.80;3.42;;;13.20;99.90;;;;;;5009181;28;20199;-57
2022/06/01 04:41:01;;;;;;;4.13;3.83;;;13.10;99.90;;;;;;5010624;28;20504;-58
2022/06/01 04:43:27;;;;;;;5.97;3.80;;;13.10;99.90;;;;;;5007041;28;20767;-58
2022/06/01 04:45:54;;;;;;;4.33;3.80;;;13.10;99.90;;;;;;5009755;28;20273;-58
2022/06/01 04:48:22;;;;;;;3.75;3.45;;;13.50;99.90;;;;;;5007946;28;20210;-58
2022/06/01 04:50:48;;;;;;;5.93;4.10;;;13.20;99.90;;;;;;5010685;28;20194;-58
2022/06/01 04:53:15;;;;;;;4.82;4.43;;;13.30;99.90;;;;;;5010007;28;20215;-59
2022/06/01 04:55:43;;;;;;;4.10;3.80;;;13.60;99.90;;;;;;5010712;28;20199;-57
2022/06/01 04:58:09;;;;;;;4.57;4.18;;;13.50;99.90;;;;;;5002006;28;20266;-59
2022/06/01 05:00:36;;;;;;;6.50;4.10;;;13.40;99.90;;;;;;5011450;28;20287;-58
2022/06/01 05:03:02;;;;;;;3.80;3.50;;;13.70;99.90;;;;;;5009028;28;20191;-58
2022/06/01 05:05:28;;;;;;;7.73;4.07;;;13.70;99.90;;;;;;5009446;28;20194;-58
2022/06/01 05:07:54;;;;;;;4.20;3.90;;;13.80;99.90;;;;;;5008572;28;20905;-58
2022/06/01 05:10:21;;;;;;;4.88;4.47;;;14.10;99.90;;;;;;5009909;28;20190;-64
2022/06/01 05:12:48;;;;;;;4.53;4.22;;;13.90;99.90;;;;;;5009820;28;20214;-56
2022/06/01 05:15:13;;;;;;;5.40;4.90;;;14.10;99.90;;;;;;5011801;28;20179;-57
2022/06/01 05:17:39;;;;;;;4.27;3.97;;;14.40;99.90;;;;;;5011399;28;20286;-58
2022/06/01 05:20:05;;;;;;;4.10;3.80;;;14.30;99.90;;;;;;5008849;28;20203;-60
2022/06/01 05:22:31;;;;;;;4.63;4.20;;;14.50;99.90;;;;;;5007476;28;20199;-59
2022/06/01 05:24:56;;;;;;;4.93;4.53;;;14.70;99.90;;;;;;5009567;28;20202;-59
2022/06/01 05:27:22;;;;;;;7.20;4.03;;;14.80;99.90;;;;;;5023807;28;20194;-61
2022/06/01 05:29:48;;;;;;;7.57;5.50;;;15.00;99.90;;;;;;5004694;28;20211;-55
2022/06/01 05:32:14;;;;;;;4.20;3.80;;;15.00;99.90;;;;;;5009547;28;20280;-55
2022/06/01 05:34:40;;;;;;;3.90;3.57;;;15.00;99.90;;;;;;5009164;28;20237;-57
2022/06/01 05:37:05;;;;;;;7.13;4.20;;;15.40;99.90;;;;;;5010551;28;20652;-56
2022/06/01 05:39:31;;;;;;;3.70;3.40;;;15.50;99.90;;;;;;5008603;28;20485;-55
2022/06/01 05:41:56;;;;;;;4.60;3.40;;;15.80;99.90;;;;;;5010122;28;20203;-56
2022/06/01 05:44:22;;;;;;;5.63;4.13;;;15.70;99.90;;;;;;5009939;28;20184;-55
2022/06/01 05:46:58;;;;;;;4.53;4.13;;;16.00;99.90;;;;;;5010216;28;20584;-56
2022/06/01 05:49:24;;;;;;;5.03;3.95;;;16.10;99.90;;;;;;5004816;28;20276;-56
2022/06/01 05:51:50;;;;;;;3.97;3.43;;;16.30;99.90;;;;;;5007530;28;20264;-56
2022/06/01 05:54:16;;;;;;;4.07;3.77;;;16.50;99.90;;;;;;5009714;28;20442;-55
2022/06/01 05:56:41;;;;;;;5.00;4.07;;;16.40;99.90;;;;;;5008149;28;20198;-55
2022/06/01 05:59:07;;;;;;;6.07;4.17;;;16.70;99.90;;;;;;5003405;28;20199;-56
2022/06/01 06:01:33;;;;;;;4.67;4.27;;;16.90;99.90;;;;;;5008169;28;20433;-62
2022/06/01 06:03:58;;;;;;;4.13;3.70;;;16.90;99.40;;;;;;5008875;28;20270;-63
2022/06/01 06:06:24;;;;;;;3.60;3.27;;;17.00;99.30;;;;;;5009283;28;20268;-62
2022/06/01 06:09:00;;;;;;;3.67;3.37;;;17.20;99.20;;;;;;5004721;28;20636;-62
2022/06/01 06:11:35;;;;;;;3.42;3.13;;;17.30;99.00;;;;;;5005787;28;20445;-62
2022/06/01 06:14:06;;;;;;;3.10;2.75;;;17.40;98.60;;;;;;5009785;28;20178;-63
2022/06/01 06:16:35;;;;;;;4.25;3.50;;;17.40;98.30;;;;;;5005886;28;20194;-63
2022/06/01 06:19:02;;;;;;;3.85;3.50;;;17.50;97.80;;;;;;4996760;28;20243;-63
2022/06/01 06:21:29;;;;;;;3.78;3.47;;;17.80;97.80;;;;;;5009768;28;20241;-63
2022/06/01 06:24:04;;;;;;;4.10;3.78;;;17.80;97.60;;;;;;5008834;28;20183;-63
2022/06/01 06:26:30;;;;;;;3.67;3.30;;;17.80;97.70;;;;;;5006931;28;20196;-63
2022/06/01 06:28:55;;;;;;;4.00;3.28;;;18.10;97.10;;;;;;5009401;28;20286;-63
2022/06/01 06:31:21;;;;;;;4.73;3.50;;;18.30;96.80;;;;;;5008577;28;20179;-63
2022/06/01 06:33:47;;;;;;;3.10;2.80;;;18.40;96.60;;;;;;5009599;28;20206;-63
2022/06/01 06:36:14;;;;;;;5.60;3.37;;;18.60;96.40;;;;;;5009160;28;20179;-63
2022/06/01 06:38:40;;;;;;;5.25;4.05;;;18.70;96.00;;;;;;5009228;28;20500;-65
2022/06/01 06:41:07;;;;;;;3.45;3.10;;;18.80;95.80;;;;;;5010206;28;20493;-65
2022/06/01 06:43:35;;;;;;;3.35;3.15;;;19.40;95.50;;;;;;5006643;28;20191;-66
2022/06/01 06:46:05;;;;;;;3.70;3.30;;;19.40;94.40;;;;;;5003388;28;20188;-65
2022/06/01 06:48:30;;;;;;;3.70;3.38;;;19.70;93.60;;;;;;5005491;28;20285;-65
2022/06/01 06:50:57;;;;;;;4.17;3.50;;;20.00;93.30;;;;;;5009286;28;20933;-64
2022/06/01 06:53:23;;;;;;;5.00;3.00;;;20.10;92.50;;;;;;5009174;28;20465;-65
2022/06/01 06:55:49;;;;;;;3.60;2.80;;;20.30;92.20;;;;;;5008396;28;20199;-64
2022/06/01 06:58:16;;;;;;;3.70;2.85;;;20.40;91.40;;;;;;5008897;28;20450;-65
2022/06/01 07:00:41;;;;;;;3.78;3.45;;;20.60;91.20;;;;;;5008978;28;20189;-64
2022/06/01 07:03:07;;;;;;;3.00;2.80;;;21.00;90.90;;;;;;5004722;28;20187;-63
2022/06/01 07:08:18;;;;;;;2.60;2.40;;;24.50;81.80;;;;;;5007696;28;20217;-63
2022/06/01 07:10:44;;;;;;;4.13;3.03;;;26.50;74.40;;;;;;5008352;28;20447;-67
2022/06/01 07:13:10;;;;;;;3.23;2.63;;;28.10;65.80;;;;;;5007669;28;20528;-64
2022/06/01 07:15:35;;;;;;;3.13;2.87;;;29.10;61.00;;;;;;5008739;28;20185;-64
2022/06/01 07:18:03;;;;;;;2.80;2.60;;;30.20;56.50;;;;;;5009534;28;20448;-64
2022/06/01 07:20:29;;;;;;;4.10;2.80;;;30.70;53.70;;;;;;5009332;28;20208;-65
2022/06/01 07:22:56;;;;;;;2.47;2.27;;;31.60;52.20;;;;;;5008819;28;20988;-65
2022/06/01 07:25:22;;;;;;;2.60;2.40;;;32.70;48.30;;;;;;5009041;28;20445;-65
2022/06/01 07:27:49;;;;;;;3.20;2.57;;;32.80;46.80;;;;;;5008918;28;20973;-66
2022/06/01 07:30:15;;;;;;;3.70;3.10;;;33.80;45.60;;;;;;5005869;28;20815;-64
2022/06/01 07:32:44;;;;;;;3.63;2.60;;;35.00;42.40;;;;;;5009015;28;20470;-63
2022/06/01 07:35:10;;;;;;;3.27;2.70;;;36.00;40.90;;;;;;5010280;28;20426;-64
2022/06/01 07:43:05;;;;;;;2.70;2.50;;;35.20;38.80;;;;;;5009600;28;20488;-64
2022/06/01 07:45:38;;;;;;;3.43;2.80;;;34.40;39.40;;;;;;5009263;28;20430;-63
2022/06/01 07:48:06;;;;;;;2.57;2.37;;;34.10;39.10;;;;;;5003680;28;20593;-64
2022/06/01 07:50:32;;;;;;;6.00;2.40;;;34.40;39.00;;;;;;5009245;28;20468;-64
2022/06/01 07:52:58;;;;;;;2.80;2.60;;;34.90;38.50;;;;;;5009678;28;20915;-64
2022/06/01 07:55:24;;;;;;;2.60;2.40;;;34.90;38.00;;;;;;5008291;28;20473;-64
2022/06/01 07:57:49;;;;;;;2.70;2.50;;;35.00;37.30;;;;;;5008485;28;20965;-64
2022/06/01 08:00:15;;;;;;;2.87;2.27;;;35.10;36.90;;;;;;5012860;28;20532;-64
2022/06/01 08:02:41;;;;;;;3.47;2.70;;;35.80;37.40;;;;;;5012009;28;20191;-64
2022/06/01 08:05:08;;;;;;;2.40;2.20;;;36.60;35.60;;;;;;5013144;28;20441;-64
2022/06/01 08:07:33;;;;;;;2.80;2.60;;;36.00;36.10;;;;;;5027306;28;20644;-64
2022/06/01 08:10:00;;;;;;;2.53;2.33;;;36.60;36.20;;;;;;5012128;28;20461;-64
2022/06/01 08:15:11;;;;;;;2.43;2.23;;;37.20;34.80;;;;;;5006855;28;21025;-64
2022/06/01 08:17:36;;;;;;;2.33;2.13;;;37.00;31.40;;;;;;5012933;28;20457;-64
2022/06/01 08:20:03;;;;;;;2.83;2.20;;;36.80;31.20;;;;;;5012491;28;20738;-64
2022/06/01 08:22:28;;;;;;;3.00;2.00;;;36.50;32.00;;;;;;5009007;28;20801;-64
2022/06/01 08:24:54;;;;;;;3.20;2.00;;;36.50;31.60;;;;;;5005876;28;20501;-64
2022/06/01 08:27:20;;;;;;;2.03;1.83;;;37.00;29.20;;;;;;5010846;28;20241;-64
2022/06/01 08:29:46;;;;;;;2.50;2.20;;;36.30;28.90;;;;;;5012499;28;20206;-64
2022/06/01 08:32:12;;;;;;;2.00;1.90;;;36.00;29.00;;;;;;5011255;28;20202;-64
2022/06/01 08:34:38;;;;;;;2.03;1.63;;;35.60;29.20;;;;;;5012465;28;20946;-64
2022/06/01 08:37:05;;;;;;;1.90;1.80;;;35.90;28.50;;;;;;5026922;28;20426;-64
2022/06/01 08:39:31;;;;;;;1.87;1.77;;;34.70;28.30;;;;;;5011445;28;20539;-64
2022/06/01 08:42:00;;;;;;;2.83;2.03;;;34.30;29.70;;;;;;5011818;28;20931;-64
2022/06/01 08:44:32;;;;;;;2.40;1.90;;;34.80;29.70;;;;;;5013427;28;21109;-64
2022/06/01 08:47:06;;;;;;;2.03;1.93;;;34.60;29.70;;;;;;5010569;28;20448;-64
2022/06/01 08:49:34;;;;;;;2.30;2.00;;;35.00;30.70;;;;;;5011564;28;20469;-64
2022/06/01 08:52:01;;;;;;;2.00;1.90;;;34.50;30.60;;;;;;5011777;28;20608;-64
2022/06/01 08:54:27;;;;;;;2.20;2.00;;;34.70;31.90;;;;;;5011516;28;20872;-64
2022/06/01 08:57:01;;;;;;;1.90;1.80;;;34.40;30.90;;;;;;5010694;28;20450;-64
2022/06/01 08:59:30;;;;;;;2.63;1.90;;;34.10;31.00;;;;;;5012019;28;20558;-64
2022/06/01 09:02:22;;;;;;;2.30;2.10;;;34.60;31.10;;;;;;5009644;28;20445;-63
2022/06/01 09:04:54;;;;;;;2.60;2.17;;;34.00;31.80;;;;;;5009876;28;20971;-64
2022/06/01 09:07:37;;;;;;;2.30;2.10;;;33.80;32.30;;;;;;5006413;28;20441;-64
2022/06/01 09:10:05;;;;;;;2.53;2.43;;;34.20;31.20;;;;;;5007000;28;21049;-64
2022/06/01 09:12:33;;;;;;;2.90;2.47;;;34.20;31.00;;;;;;5009468;28;20477;-64
2022/06/01 09:15:17;;;;;;;2.93;2.60;;;33.40;32.40;;;;;;5009817;28;20449;-64
2022/06/01 09:17:43;;;;;;;3.37;2.27;;;33.40;34.20;;;;;;5010447;28;20433;-63
2022/06/01 09:23:00;;;;;;;3.70;2.73;;;30.60;37.70;;;;;;5010789;28;20494;-62
2022/06/01 09:25:32;;;;;;;2.60;2.40;;;29.20;38.60;;;;;;5010899;28;20432;-62
2022/06/01 09:28:02;;;;;;;4.60;2.67;;;28.20;40.20;;;;;;5010201;28;20856;-63
2022/06/01 09:30:41;;;;;;;8.07;2.40;;;28.40;41.30;;;;;;5010632;28;20422;-63
2022/06/01 09:33:24;;;;;;;4.97;2.40;;;29.60;40.00;;;;;;5009587;28;20525;-63
2022/06/01 09:36:02;;;;;;;3.30;3.00;;;29.90;39.60;;;;;;5011131;28;20498;-63
2022/06/01 09:38:36;;;;;;;2.47;2.27;;;29.50;39.90;;;;;;5010207;28;20464;-63
2022/06/01 09:41:11;;;;;;;2.43;2.20;;;29.70;40.10;;;;;;5011201;28;20859;-63
2022/06/01 09:43:41;;;;;;;2.57;2.37;;;30.80;38.20;;;;;;5012125;28;20522;-63
2022/06/01 09:46:07;;;;;;;2.60;2.40;;;31.30;38.00;;;;;;5010563;28;20964;-63
2022/06/01 09:48:37;;;;;;;2.50;2.30;;;32.00;36.60;;;;;;5019947;28;20947;-63
2022/06/01 09:51:08;;;;;;;3.50;2.40;;;30.30;36.90;;;;;;5006693;28;20536;-63
2022/06/01 09:53:44;;;;;;;3.47;2.30;;;29.40;37.30;;;;;;5009107;28;20476;-63
2022/06/01 09:56:09;;;;;;;3.70;2.00;;;28.40;36.50;;;;;;5009989;28;20946;-63
2022/06/01 10:07:21;;;;;;;2.13;1.63;;;30.70;32.20;;;;;;5007494;28;20433;-64
2022/06/01 10:09:58;;;;;;;2.00;1.40;;;31.70;29.90;;;;;;5010057;28;20919;-64
2022/06/01 10:12:49;;;;;;;1.80;1.70;;;31.70;29.40;;;;;;5010327;28;20470;-64
2022/06/01 10:15:21;;;;;;;2.03;1.83;;;31.80;29.40;;;;;;5008692;28;20540;-64
2022/06/01 10:17:51;;;;;;;2.30;1.87;;;32.10;29.70;;;;;;5009704;28;20873;-65
2022/06/01 10:20:31;;;;;;;1.50;1.40;;;32.60;28.60;;;;;;5009609;28;20508;-66
2022/06/01 10:23:11;;;;;;;1.67;1.57;;;32.50;29.00;;;;;;5009386;28;20548;-65
2022/06/01 10:25:49;;;;;;;2.50;2.13;;;31.40;29.70;;;;;;5009610;28;20440;-65
2022/06/01 10:28:41;;;;;;;2.23;1.83;;;31.30;30.00;;;;;;5009336;28;20470;-66
2022/06/01 10:31:42;;;;;;;1.67;1.57;;;31.80;30.00;;;;;;5007493;28;20445;-66
2022/06/01 10:34:15;;;;;;;3.23;2.93;;;32.40;28.50;;;;;;5004375;28;21012;-65
2022/06/01 10:36:50;;;;;;;3.10;1.70;;;31.30;29.50;;;;;;5009707;28;20517;-65
2022/06/01 10:39:23;;;;;;;1.70;1.60;;;29.90;29.70;;;;;;5009617;28;20584;-65
2022/06/01 10:42:03;;;;;;;2.90;1.67;;;29.00;30.50;;;;;;5010586;28;20431;-65
2022/06/01 10:44:56;;;;;;;1.70;1.50;;;29.20;31.90;;;;;;5009520;28;20429;-67
2022/06/01 10:47:42;;;;;;;1.40;1.30;;;30.30;30.00;;;;;;5006104;28;20448;-66
2022/06/01 10:50:19;;;;;;;1.97;1.87;;;31.60;30.00;;;;;;5001135;28;20495;-66
2022/06/01 10:52:51;;;;;;;1.67;1.57;;;32.40;28.80;;;;;;5009364;28;20467;-66
2022/06/01 10:55:28;;;;;;;1.77;1.67;;;32.30;28.80;;;;;;5009654;28;20801;-64
2022/06/01 10:57:59;;;;;;;2.20;1.47;;;31.50;28.90;;;;;;5009910;28;20505;-64
2022/06/01 11:01:00;;;;;;;2.10;2.00;;;32.10;29.20;;;;;;5008657;28;20568;-64
2022/06/01 11:03:53;;;;;;;2.30;1.80;;;31.60;29.20;;;;;;4981899;28;20893;-63
2022/06/01 11:06:44;;;;;;;3.40;2.50;;;30.90;30.00;;;;;;5007091;28;20762;-64
2022/06/01 11:09:50;;;;;;;2.10;1.73;;;31.30;30.00;;;;;;5008940;28;20502;-64
2022/06/01 11:12:55;;;;;;;1.70;1.60;;;31.30;29.70;;;;;;5005239;28;20479;-64
2022/06/01 11:15:44;;;;;;;3.23;2.93;;;31.70;29.10;;;;;;5009691;28;20428;-63
2022/06/01 11:18:28;;;;;;;2.23;1.80;;;30.90;29.50;;;;;;5006375;28;20542;-63
2022/06/01 11:21:08;;;;;;;2.20;1.70;;;29.90;30.10;;;;;;5007887;28;20479;-63
2022/06/01 11:23:59;;;;;;;3.60;2.13;;;30.30;30.70;;;;;;5005662;28;20511;-64
2022/06/01 11:26:30;;;;;;;2.53;2.33;;;31.40;29.70;;;;;;5009054;28;20464;-64
2022/06/01 11:29:16;;;;;;;2.40;2.10;;;31.50;29.90;;;;;;5009473;28;20983;-64
2022/06/01 11:31:44;;;;;;;2.87;2.30;;;31.60;29.70;;;;;;5006326;28;20439;-64
2022/06/01 11:34:19;;;;;;;4.60;3.77;;;31.00;29.80;;;;;;5012914;28;20534;-64
2022/06/01 11:37:10;;;;;;;3.20;2.20;;;30.40;30.50;;;;;;5012751;28;20432;-63
2022/06/01 11:39:55;;;;;;;2.27;2.07;;;29.30;31.10;;;;;;5012744;28;20475;-63
2022/06/01 11:42:27;;;;;;;1.93;1.77;;;28.90;32.20;;;;;;5012706;28;20972;-63
2022/06/01 11:45:08;;;;;;;1.70;1.57;;;29.00;31.40;;;;;;5013170;28;20531;-63
2022/06/01 11:47:41;;;;;;;1.77;1.57;;;28.20;31.60;;;;;;5011595;28;20427;-63
2022/06/01 11:50:16;;;;;;;1.60;1.50;;;27.90;32.50;;;;;;5012447;28;20452;-63
2022/06/01 11:53:05;;;;;;;1.80;1.70;;;28.00;32.90;;;;;;5027701;28;20457;-63
2022/06/01 11:55:34;;;;;;;5.10;2.33;;;28.10;33.20;;;;;;5008267;28;20442;-64
2022/06/01 11:58:21;;;;;;;1.87;1.77;;;28.30;32.50;;;;;;5013020;28;20481;-63
2022/06/01 12:00:53;;;;;;;1.83;1.73;;;28.40;32.10;;;;;;5012520;28;20748;-63
2022/06/01 12:03:25;;;;;;;4.37;2.50;;;28.00;32.70;;;;;;5012967;28;20462;-63
2022/06/01 12:06:02;;;;;;;2.80;2.00;;;27.90;32.90;;;;;;5013089;28;20492;-63
2022/06/01 12:08:35;;;;;;;2.40;1.70;;;27.70;33.10;;;;;;5012452;28;20884;-63
2022/06/01 12:11:06;;;;;;;1.80;1.70;;;27.40;33.10;;;;;;5014186;28;20457;-61
2022/06/01 12:13:38;;;;;;;1.77;1.67;;;27.40;34.00;;;;;;5027695;28;20527;-62
2022/06/01 12:16:04;;;;;;;2.83;1.70;;;27.30;34.00;;;;;;5004805;28;20448;-61
2022/06/01 12:18:31;;;;;;;3.40;1.67;;;27.10;34.30;;;;;;5012261;28;20970;-62
2022/06/01 12:21:15;;;;;;;2.13;2.03;;;27.10;34.80;;;;;;5020977;28;20285;-62
2022/06/01 12:29:33;;;;;;;2.67;2.47;;;27.00;35.70;;;;;;5007448;28;20492;-61
2022/06/01 12:31:59;;;;;;;4.50;2.10;;;26.80;35.20;;;;;;5011360;28;20483;-62
2022/06/01 12:34:28;;;;;;;2.47;2.10;;;26.90;35.70;;;;;;5012502;28;20430;-62
2022/06/01 12:37:32;;;;;;;2.27;1.67;;;26.80;36.10;;;;;;5011766;28;20257;-62
2022/06/01 12:40:09;;;;;;;4.30;2.30;;;26.60;36.10;;;;;;5011558;28;20560;-62
2022/06/01 12:42:53;;;;;;;3.07;2.07;;;26.50;36.70;;;;;;5008458;28;20457;-62
2022/06/01 12:45:21;;;;;;;2.80;1.97;;;26.50;37.00;;;;;;5006352;28;20433;-62
2022/06/01 12:47:59;;;;;;;2.97;2.10;;;26.50;37.60;;;;;;5011370;28;20531;-62
2022/06/01 12:50:27;;;;;;;2.53;1.90;;;26.20;38.00;;;;;;5012040;28;20974;-62
2022/06/01 12:53:12;;;;;;;5.53;2.37;;;26.30;38.20;;;;;;5011475;28;20500;-62
2022/06/01 12:55:38;;;;;;;3.90;2.30;;;26.30;39.10;;;;;;5011201;28;20439;-63
2022/06/01 12:58:13;;;;;;;2.13;2.03;;;26.50;39.00;;;;;;5011946;28;20878;-63
2022/06/01 13:00:45;;;;;;;1.73;1.63;;;26.50;38.10;;;;;;5011504;28;20427;-62
2022/06/01 13:03:12;;;;;;;2.40;1.77;;;26.10;38.60;;;;;;5012079;28;20440;-62
2022/06/01 13:05:41;;;;;;;2.30;2.10;;;26.10;39.20;;;;;;5011521;28;20442;-62
2022/06/01 13:08:20;;;;;;;3.33;2.40;;;25.80;39.80;;;;;;5026878;28;20455;-62
2022/06/01 13:10:46;;;;;;;2.30;1.93;;;25.70;40.00;;;;;;5011170;28;20448;-62
2022/06/01 13:13:20;;;;;;;2.20;2.10;;;25.80;39.80;;;;;;5010961;28;20474;-63
2022/06/01 13:15:58;;;;;;;2.10;1.90;;;25.80;39.90;;;;;;5009936;28;20184;-62
2022/06/01 13:18:30;;;;;;;3.70;2.13;;;25.80;40.00;;;;;;5011971;28;20470;-62
2022/06/01 13:21:03;;;;;;;2.33;2.13;;;26.00;40.10;;;;;;5012605;28;21410;-63
2022/06/01 13:23:54;;;;;;;2.20;2.00;;;26.00;40.00;;;;;;5009251;28;20807;-62
2022/06/01 13:26:46;;;;;;;2.83;2.63;;;26.10;40.20;;;;;;5008917;28;20436;-63
2022/06/01 13:29:22;;;;;;;2.70;2.33;;;25.90;40.90;;;;;;5005438;28;20863;-62
2022/06/01 13:31:51;;;;;;;4.93;4.23;;;25.80;41.90;;;;;;5010855;28;20943;-62
2022/06/01 13:34:21;;;;;;;5.00;3.10;;;25.60;42.60;;;;;;5011127;28;20434;-61
2022/06/01 13:36:48;;;;;;;3.30;3.10;;;25.40;43.10;;;;;;5005161;28;20535;-62
2022/06/01 13:39:14;;;;;;;2.73;2.53;;;25.40;43.40;;;;;;5010518;28;20879;-62
2022/06/01 13:41:54;;;;;;;4.07;3.20;;;25.10;43.60;;;;;;5011373;28;20518;-61
2022/06/01 13:44:45;;;;;;;9.27;6.30;;;25.00;43.40;;;;;;5011017;28;20453;-62